sensor_id;sensor_type;location;lat;lon;timestamp;temperature;humidity
14210;DHT22;7188;56.070;12.698;2023-02-16T00:02:09;4.20;1.00
14210;DHT22;7188;56.070;12.698;2023-02-16T00:04:34;4.30;1.00
14210;DHT22;7188;56.070;12.698;2023-02-16T00:07:00;4.20;1.00
14210;DHT22;7188;56.070;12.698;2023-02-16T00:09:25;4.30;1.00
14210;DHT22;7188;56.070;12.698;2023-02-16T00:11:52;4.30;1.00
14210;DHT22;7188;56.070;12.698;2023-02-16T00:14:38;4.20;1.00
14210;DHT22;7188;56.070;12.698;2023-02-16T00:17:04;4.20;1.00
14210;DHT22;7188;56.070;12.698;2023-02-16T00:19:35;4.10;1.00
14210;DHT22;7188;56.070;12.698;2023-02-16T00:22:02;4.20;1.00
14210;DHT22;7188;56.070;12.698;2023-02-16T00:24:30;4.30;1.00
14210;DHT22;7188;56.070;12.698;2023-02-16T00:26:56;4.20;1.00
14210;DHT22;7188;56.070;12.698;2023-02-16T00:29:31;4.20;1.00
14210;DHT22;7188;56.070;12.698;2023-02-16T00:31:58;4.20;1.00
14210;DHT22;7188;56.070;12.698;2023-02-16T00:34:43;4.20;1.00
14210;DHT22;7188;56.070;12.698;2023-02-16T00:37:11;4.20;1.00
14210;DHT22;7188;56.070;12.698;2023-02-16T00:39:43;4.10;1.00
14210;DHT22;7188;56.070;12.698;2023-02-16T00:42:17;4.20;1.00
14210;DHT22;7188;56.070;12.698;2023-02-16T00:44:55;4.10;1.00
14210;DHT22;7188;56.070;12.698;2023-02-16T00:47:36;4.10;1.00
14210;DHT22;7188;56.070;12.698;2023-02-16T00:50:22;4.10;1.00
14210;DHT22;7188;56.070;12.698;2023-02-16T00:52:49;4.00;99.90
14210;DHT22;7188;56.070;12.698;2023-02-16T00:55:20;4.00;99.90
14210;DHT22;7188;56.070;12.698;2023-02-16T01:00:53;4.20;1.00
14210;DHT22;7188;56.070;12.698;2023-02-16T01:03:26;4.10;99.90
14210;DHT22;7188;56.070;12.698;2023-02-16T01:05:53;4.10;99.90
14210;DHT22;7188;56.070;12.698;2023-02-16T01:08:39;4.10;99.90
14210;DHT22;7188;56.070;12.698;2023-02-16T01:11:24;4.10;99.90
14210;DHT22;7188;56.070;12.698;2023-02-16T01:13:52;4.10;99.90
14210;DHT22;7188;56.070;12.698;2023-02-16T01:16:30;4.10;99.90
14210;DHT22;7188;56.070;12.698;2023-02-16T01:18:57;4.10;99.90
14210;DHT22;7188;56.070;12.698;2023-02-16T01:21:23;4.10;99.90
14210;DHT22;7188;56.070;12.698;2023-02-16T01:23:49;4.00;99.90
14210;DHT22;7188;56.070;12.698;2023-02-16T01:26:16;4.10;99.90
14210;DHT22;7188;56.070;12.698;2023-02-16T01:28:43;4.10;99.90
14210;DHT22;7188;56.070;12.698;2023-02-16T01:31:12;4.10;99.90
14210;DHT22;7188;56.070;12.698;2023-02-16T01:33:39;4.20;99.90
14210;DHT22;7188;56.070;12.698;2023-02-16T01:36:08;4.20;99.90
14210;DHT22;7188;56.070;12.698;2023-02-16T01:38:44;4.10;99.90
14210;DHT22;7188;56.070;12.698;2023-02-16T01:42:14;4.00;99.90
14210;DHT22;7188;56.070;12.698;2023-02-16T01:49:16;4.10;99.90
14210;DHT22;7188;56.070;12.698;2023-02-16T01:54:42;4.30;99.90
14210;DHT22;7188;56.070;12.698;2023-02-16T02:02:21;4.00;99.90
14210;DHT22;7188;56.070;12.698;2023-02-16T02:04:55;4.00;99.90
14210;DHT22;7188;56.070;12.698;2023-02-16T02:07:54;3.80;99.90
14210;DHT22;7188;56.070;12.698;2023-02-16T02:15:57;3.90;99.90
14210;DHT22;7188;56.070;12.698;2023-02-16T02:18:23;3.90;99.90
14210;DHT22;7188;56.070;12.698;2023-02-16T02:37:56;3.90;99.90
14210;DHT22;7188;56.070;12.698;2023-02-16T02:40:40;3.80;99.90
14210;DHT22;7188;56.070;12.698;2023-02-16T02:46:15;3.80;99.90
14210;DHT22;7188;56.070;12.698;2023-02-16T02:48:41;3.90;99.90
14210;DHT22;7188;56.070;12.698;2023-02-16T02:53:58;3.90;99.90
14210;DHT22;7188;56.070;12.698;2023-02-16T02:57:04;3.80;99.90
14210;DHT22;7188;56.070;12.698;2023-02-16T02:59:58;3.80;99.90
14210;DHT22;7188;56.070;12.698;2023-02-16T03:02:45;3.80;99.90
14210;DHT22;7188;56.070;12.698;2023-02-16T03:05:14;3.80;99.90
14210;DHT22;7188;56.070;12.698;2023-02-16T03:07:43;3.70;99.90
14210;DHT22;7188;56.070;12.698;2023-02-16T03:13:03;3.80;99.90
14210;DHT22;7188;56.070;12.698;2023-02-16T03:15:31;3.90;99.90
14210;DHT22;7188;56.070;12.698;2023-02-16T03:17:59;3.90;99.90
14210;DHT22;7188;56.070;12.698;2023-02-16T03:20:45;4.10;99.90
14210;DHT22;7188;56.070;12.698;2023-02-16T03:23:29;4.00;99.90
14210;DHT22;7188;56.070;12.698;2023-02-16T03:26:14;4.00;99.90
14210;DHT22;7188;56.070;12.698;2023-02-16T03:29:00;3.90;99.90
14210;DHT22;7188;56.070;12.698;2023-02-16T03:31:46;3.90;99.90
14210;DHT22;7188;56.070;12.698;2023-02-16T03:34:12;4.00;99.90
14210;DHT22;7188;56.070;12.698;2023-02-16T03:36:40;4.10;99.90
14210;DHT22;7188;56.070;12.698;2023-02-16T03:39:07;4.00;99.90
14210;DHT22;7188;56.070;12.698;2023-02-16T03:41:37;4.10;99.90
14210;DHT22;7188;56.070;12.698;2023-02-16T03:44:03;4.00;99.90
14210;DHT22;7188;56.070;12.698;2023-02-16T03:46:29;4.00;99.90
14210;DHT22;7188;56.070;12.698;2023-02-16T03:48:55;4.10;99.90
14210;DHT22;7188;56.070;12.698;2023-02-16T03:51:21;4.20;99.90
14210;DHT22;7188;56.070;12.698;2023-02-16T03:53:46;4.10;99.90
14210;DHT22;7188;56.070;12.698;2023-02-16T03:56:12;4.20;99.90
14210;DHT22;7188;56.070;12.698;2023-02-16T03:58:38;4.30;99.90
14210;DHT22;7188;56.070;12.698;2023-02-16T04:01:04;4.30;99.90
14210;DHT22;7188;56.070;12.698;2023-02-16T04:03:29;4.30;99.90
14210;DHT22;7188;56.070;12.698;2023-02-16T04:05:55;4.30;99.90
14210;DHT22;7188;56.070;12.698;2023-02-16T04:08:21;4.30;99.90
14210;DHT22;7188;56.070;12.698;2023-02-16T04:10:46;4.40;99.90
14210;DHT22;7188;56.070;12.698;2023-02-16T04:13:12;4.40;99.90
14210;DHT22;7188;56.070;12.698;2023-02-16T04:15:38;4.40;99.90
14210;DHT22;7188;56.070;12.698;2023-02-16T04:18:05;4.40;99.90
14210;DHT22;7188;56.070;12.698;2023-02-16T04:20:32;4.40;99.90
14210;DHT22;7188;56.070;12.698;2023-02-16T04:23:02;4.40;99.90
14210;DHT22;7188;56.070;12.698;2023-02-16T04:25:28;4.50;99.90
14210;DHT22;7188;56.070;12.698;2023-02-16T04:27:54;4.50;99.90
14210;DHT22;7188;56.070;12.698;2023-02-16T04:30:22;4.30;99.90
14210;DHT22;7188;56.070;12.698;2023-02-16T04:32:48;4.20;99.90
14210;DHT22;7188;56.070;12.698;2023-02-16T04:35:15;4.10;99.90
14210;DHT22;7188;56.070;12.698;2023-02-16T04:37:41;4.20;99.90
14210;DHT22;7188;56.070;12.698;2023-02-16T04:40:08;4.10;99.90
14210;DHT22;7188;56.070;12.698;2023-02-16T04:42:34;4.10;99.90
14210;DHT22;7188;56.070;12.698;2023-02-16T04:45:02;4.20;99.90
14210;DHT22;7188;56.070;12.698;2023-02-16T04:47:28;4.40;99.90
14210;DHT22;7188;56.070;12.698;2023-02-16T04:49:54;4.40;99.90
14210;DHT22;7188;56.070;12.698;2023-02-16T04:52:19;4.40;99.90
14210;DHT22;7188;56.070;12.698;2023-02-16T04:54:45;4.30;99.90
14210;DHT22;7188;56.070;12.698;2023-02-16T04:57:11;4.40;99.90
14210;DHT22;7188;56.070;12.698;2023-02-16T04:59:37;4.40;99.90
14210;DHT22;7188;56.070;12.698;2023-02-16T05:02:03;4.40;99.90
14210;DHT22;7188;56.070;12.698;2023-02-16T05:04:44;4.50;99.90
14210;DHT22;7188;56.070;12.698;2023-02-16T05:07:10;4.30;99.90
14210;DHT22;7188;56.070;12.698;2023-02-16T05:09:35;4.30;99.90
14210;DHT22;7188;56.070;12.698;2023-02-16T05:12:01;4.20;99.90
14210;DHT22;7188;56.070;12.698;2023-02-16T05:14:45;4.30;99.90
14210;DHT22;7188;56.070;12.698;2023-02-16T05:17:13;4.30;99.90
14210;DHT22;7188;56.070;12.698;2023-02-16T05:19:40;4.20;99.90
14210;DHT22;7188;56.070;12.698;2023-02-16T05:22:08;4.20;99.90
14210;DHT22;7188;56.070;12.698;2023-02-16T05:24:35;4.40;99.90
14210;DHT22;7188;56.070;12.698;2023-02-16T05:27:06;4.50;99.90
14210;DHT22;7188;56.070;12.698;2023-02-16T05:29:32;4.40;99.90
14210;DHT22;7188;56.070;12.698;2023-02-16T05:31:59;4.50;99.90
14210;DHT22;7188;56.070;12.698;2023-02-16T05:34:24;4.40;99.90
14210;DHT22;7188;56.070;12.698;2023-02-16T05:36:50;4.30;99.90
14210;DHT22;7188;56.070;12.698;2023-02-16T05:39:16;4.30;99.90
14210;DHT22;7188;56.070;12.698;2023-02-16T05:41:42;4.20;99.90
14210;DHT22;7188;56.070;12.698;2023-02-16T05:44:08;4.30;99.90
14210;DHT22;7188;56.070;12.698;2023-02-16T05:46:36;4.20;99.90
14210;DHT22;7188;56.070;12.698;2023-02-16T05:49:02;4.20;99.90
14210;DHT22;7188;56.070;12.698;2023-02-16T05:51:28;4.20;99.90
14210;DHT22;7188;56.070;12.698;2023-02-16T05:53:54;4.20;99.90
14210;DHT22;7188;56.070;12.698;2023-02-16T05:56:20;4.10;99.90
14210;DHT22;7188;56.070;12.698;2023-02-16T05:58:46;4.10;99.90
14210;DHT22;7188;56.070;12.698;2023-02-16T06:01:12;4.10;99.90
14210;DHT22;7188;56.070;12.698;2023-02-16T06:03:38;4.10;99.90
14210;DHT22;7188;56.070;12.698;2023-02-16T06:06:05;4.20;99.90
14210;DHT22;7188;56.070;12.698;2023-02-16T06:08:32;4.20;99.90
14210;DHT22;7188;56.070;12.698;2023-02-16T06:10:58;4.10;99.90
14210;DHT22;7188;56.070;12.698;2023-02-16T06:13:24;4.10;99.90
14210;DHT22;7188;56.070;12.698;2023-02-16T06:15:54;4.20;99.90
14210;DHT22;7188;56.070;12.698;2023-02-16T06:18:22;4.20;99.90
14210;DHT22;7188;56.070;12.698;2023-02-16T06:20:48;4.10;99.90
14210;DHT22;7188;56.070;12.698;2023-02-16T06:23:15;4.10;99.90
14210;DHT22;7188;56.070;12.698;2023-02-16T06:25:41;4.00;99.90
14210;DHT22;7188;56.070;12.698;2023-02-16T06:28:07;4.00;99.90
14210;DHT22;7188;56.070;12.698;2023-02-16T06:30:33;4.00;99.90
14210;DHT22;7188;56.070;12.698;2023-02-16T06:33:00;4.00;99.90
14210;DHT22;7188;56.070;12.698;2023-02-16T06:35:26;4.00;99.90
14210;DHT22;7188;56.070;12.698;2023-02-16T06:37:52;4.00;99.90
14210;DHT22;7188;56.070;12.698;2023-02-16T06:40:18;4.00;99.90
14210;DHT22;7188;56.070;12.698;2023-02-16T06:42:43;4.00;99.90
14210;DHT22;7188;56.070;12.698;2023-02-16T06:45:09;4.00;99.90
14210;DHT22;7188;56.070;12.698;2023-02-16T06:47:35;4.00;99.90
14210;DHT22;7188;56.070;12.698;2023-02-16T06:50:01;4.00;99.90
14210;DHT22;7188;56.070;12.698;2023-02-16T06:52:27;4.00;99.90
14210;DHT22;7188;56.070;12.698;2023-02-16T06:54:53;4.00;99.90
14210;DHT22;7188;56.070;12.698;2023-02-16T06:57:18;4.00;99.90
14210;DHT22;7188;56.070;12.698;2023-02-16T06:59:44;4.00;99.90
14210;DHT22;7188;56.070;12.698;2023-02-16T07:02:10;4.10;99.90
14210;DHT22;7188;56.070;12.698;2023-02-16T07:04:36;4.10;99.90
14210;DHT22;7188;56.070;12.698;2023-02-16T07:07:02;4.10;99.90
14210;DHT22;7188;56.070;12.698;2023-02-16T07:09:28;4.10;99.90
14210;DHT22;7188;56.070;12.698;2023-02-16T07:11:53;4.10;99.90
14210;DHT22;7188;56.070;12.698;2023-02-16T07:14:19;4.10;99.90
14210;DHT22;7188;56.070;12.698;2023-02-16T07:16:45;4.10;99.90
14210;DHT22;7188;56.070;12.698;2023-02-16T07:19:11;4.10;99.90
14210;DHT22;7188;56.070;12.698;2023-02-16T07:21:36;4.10;99.90
14210;DHT22;7188;56.070;12.698;2023-02-16T07:24:02;4.10;99.90
14210;DHT22;7188;56.070;12.698;2023-02-16T07:26:28;4.20;99.90
14210;DHT22;7188;56.070;12.698;2023-02-16T07:28:53;4.10;99.90
14210;DHT22;7188;56.070;12.698;2023-02-16T07:31:19;4.20;99.90
14210;DHT22;7188;56.070;12.698;2023-02-16T07:33:45;4.20;99.90
14210;DHT22;7188;56.070;12.698;2023-02-16T07:36:12;4.20;99.90
14210;DHT22;7188;56.070;12.698;2023-02-16T07:38:38;4.20;99.90
14210;DHT22;7188;56.070;12.698;2023-02-16T07:41:06;4.20;99.90
14210;DHT22;7188;56.070;12.698;2023-02-16T07:43:32;4.20;99.90
14210;DHT22;7188;56.070;12.698;2023-02-16T07:45:59;4.20;99.90
14210;DHT22;7188;56.070;12.698;2023-02-16T07:48:24;4.20;1.00
14210;DHT22;7188;56.070;12.698;2023-02-16T07:50:50;4.20;1.00
14210;DHT22;7188;56.070;12.698;2023-02-16T07:53:16;4.20;1.00
14210;DHT22;7188;56.070;12.698;2023-02-16T07:55:42;4.40;1.00
14210;DHT22;7188;56.070;12.698;2023-02-16T07:58:08;4.50;1.00
14210;DHT22;7188;56.070;12.698;2023-02-16T08:00:34;4.50;1.00
14210;DHT22;7188;56.070;12.698;2023-02-16T08:03:00;4.50;1.00
14210;DHT22;7188;56.070;12.698;2023-02-16T08:05:26;4.40;1.00
14210;DHT22;7188;56.070;12.698;2023-02-16T08:07:53;4.40;1.00
14210;DHT22;7188;56.070;12.698;2023-02-16T08:10:19;4.40;1.00
14210;DHT22;7188;56.070;12.698;2023-02-16T08:12:45;4.40;1.00
14210;DHT22;7188;56.070;12.698;2023-02-16T08:15:11;4.40;1.00
14210;DHT22;7188;56.070;12.698;2023-02-16T08:17:36;4.40;1.00
14210;DHT22;7188;56.070;12.698;2023-02-16T08:20:05;4.50;1.00
14210;DHT22;7188;56.070;12.698;2023-02-16T08:22:31;4.50;1.00
14210;DHT22;7188;56.070;12.698;2023-02-16T08:24:57;4.50;1.00
14210;DHT22;7188;56.070;12.698;2023-02-16T08:27:24;4.50;1.00
14210;DHT22;7188;56.070;12.698;2023-02-16T08:29:51;4.40;1.00
14210;DHT22;7188;56.070;12.698;2023-02-16T08:32:17;4.40;1.00
14210;DHT22;7188;56.070;12.698;2023-02-16T08:34:43;4.50;1.00
14210;DHT22;7188;56.070;12.698;2023-02-16T08:37:11;4.50;1.00
14210;DHT22;7188;56.070;12.698;2023-02-16T08:39:39;4.50;1.00
14210;DHT22;7188;56.070;12.698;2023-02-16T08:42:06;4.50;1.00
14210;DHT22;7188;56.070;12.698;2023-02-16T08:44:31;4.50;1.00
14210;DHT22;7188;56.070;12.698;2023-02-16T08:46:58;4.60;1.00
14210;DHT22;7188;56.070;12.698;2023-02-16T08:49:25;4.60;1.00
14210;DHT22;7188;56.070;12.698;2023-02-16T08:51:54;4.60;1.00
14210;DHT22;7188;56.070;12.698;2023-02-16T08:54:26;4.60;1.00
14210;DHT22;7188;56.070;12.698;2023-02-16T08:56:52;4.70;1.00
14210;DHT22;7188;56.070;12.698;2023-02-16T08:59:20;4.70;1.00
14210;DHT22;7188;56.070;12.698;2023-02-16T09:01:46;4.70;1.00
14210;DHT22;7188;56.070;12.698;2023-02-16T09:04:13;4.70;1.00
14210;DHT22;7188;56.070;12.698;2023-02-16T09:06:41;4.70;1.00
14210;DHT22;7188;56.070;12.698;2023-02-16T09:09:07;4.80;1.00
14210;DHT22;7188;56.070;12.698;2023-02-16T09:11:34;4.80;1.00
14210;DHT22;7188;56.070;12.698;2023-02-16T09:14:00;4.80;1.00
14210;DHT22;7188;56.070;12.698;2023-02-16T09:16:27;4.80;1.00
14210;DHT22;7188;56.070;12.698;2023-02-16T09:19:04;4.80;1.00
14210;DHT22;7188;56.070;12.698;2023-02-16T09:21:30;4.90;1.00
14210;DHT22;7188;56.070;12.698;2023-02-16T09:24:01;4.90;1.00
14210;DHT22;7188;56.070;12.698;2023-02-16T09:26:34;4.90;1.00
14210;DHT22;7188;56.070;12.698;2023-02-16T09:29:01;5.00;1.00
14210;DHT22;7188;56.070;12.698;2023-02-16T09:31:30;4.90;1.00
14210;DHT22;7188;56.070;12.698;2023-02-16T09:34:07;5.00;1.00
14210;DHT22;7188;56.070;12.698;2023-02-16T09:36:33;5.10;1.00
14210;DHT22;7188;56.070;12.698;2023-02-16T09:38:59;5.10;1.00
14210;DHT22;7188;56.070;12.698;2023-02-16T09:46:34;5.20;1.00
14210;DHT22;7188;56.070;12.698;2023-02-16T09:51:48;5.20;1.00
14210;DHT22;7188;56.070;12.698;2023-02-16T09:54:32;5.20;1.00
14210;DHT22;7188;56.070;12.698;2023-02-16T10:08:29;5.30;1.00
14210;DHT22;7188;56.070;12.698;2023-02-16T10:11:12;5.40;1.00
14210;DHT22;7188;56.070;12.698;2023-02-16T10:14:04;5.40;1.00
14210;DHT22;7188;56.070;12.698;2023-02-16T10:19:28;5.30;1.00
14210;DHT22;7188;56.070;12.698;2023-02-16T10:21:59;5.40;1.00
14210;DHT22;7188;56.070;12.698;2023-02-16T10:24:29;5.40;1.00
14210;DHT22;7188;56.070;12.698;2023-02-16T10:27:06;5.40;1.00
14210;DHT22;7188;56.070;12.698;2023-02-16T10:29:35;5.40;1.00
14210;DHT22;7188;56.070;12.698;2023-02-16T10:35:12;5.40;1.00
14210;DHT22;7188;56.070;12.698;2023-02-16T10:43:17;5.50;1.00
14210;DHT22;7188;56.070;12.698;2023-02-16T10:45:56;5.50;1.00
14210;DHT22;7188;56.070;12.698;2023-02-16T10:48:24;5.60;1.00
14210;DHT22;7188;56.070;12.698;2023-02-16T10:51:01;5.60;1.00
14210;DHT22;7188;56.070;12.698;2023-02-16T10:55:56;5.60;1.00
14210;DHT22;7188;56.070;12.698;2023-02-16T10:58:25;5.70;1.00
14210;DHT22;7188;56.070;12.698;2023-02-16T11:01:06;5.70;1.00
14210;DHT22;7188;56.070;12.698;2023-02-16T11:03:52;5.70;1.00
14210;DHT22;7188;56.070;12.698;2023-02-16T11:06:21;5.70;1.00
14210;DHT22;7188;56.070;12.698;2023-02-16T11:08:53;5.80;1.00
14210;DHT22;7188;56.070;12.698;2023-02-16T11:11:22;5.80;1.00
14210;DHT22;7188;56.070;12.698;2023-02-16T11:13:59;5.80;1.00
14210;DHT22;7188;56.070;12.698;2023-02-16T11:16:26;5.80;1.00
14210;DHT22;7188;56.070;12.698;2023-02-16T11:18:58;5.90;1.00
14210;DHT22;7188;56.070;12.698;2023-02-16T11:21:45;5.90;1.00
14210;DHT22;7188;56.070;12.698;2023-02-16T11:24:24;5.90;1.00
14210;DHT22;7188;56.070;12.698;2023-02-16T11:26:59;5.90;1.00
14210;DHT22;7188;56.070;12.698;2023-02-16T11:29:26;6.00;1.00
14210;DHT22;7188;56.070;12.698;2023-02-16T11:31:52;6.00;1.00
14210;DHT22;7188;56.070;12.698;2023-02-16T11:36:50;6.10;1.00
14210;DHT22;7188;56.070;12.698;2023-02-16T11:39:23;6.20;1.00
14210;DHT22;7188;56.070;12.698;2023-02-16T11:41:56;6.20;1.00
14210;DHT22;7188;56.070;12.698;2023-02-16T11:46:58;6.20;1.00
14210;DHT22;7188;56.070;12.698;2023-02-16T11:51:54;6.30;1.00
14210;DHT22;7188;56.070;12.698;2023-02-16T11:54:20;6.30;1.00
14210;DHT22;7188;56.070;12.698;2023-02-16T11:57:04;6.40;1.00
14210;DHT22;7188;56.070;12.698;2023-02-16T11:59:37;6.40;1.00
14210;DHT22;7188;56.070;12.698;2023-02-16T12:10:37;6.40;1.00
14210;DHT22;7188;56.070;12.698;2023-02-16T12:13:19;6.30;1.00
14210;DHT22;7188;56.070;12.698;2023-02-16T12:18:42;6.40;1.00
14210;DHT22;7188;56.070;12.698;2023-02-16T12:26:52;6.40;1.00
14210;DHT22;7188;56.070;12.698;2023-02-16T12:29:41;6.40;1.00
14210;DHT22;7188;56.070;12.698;2023-02-16T12:40:31;6.30;99.90
14210;DHT22;7188;56.070;12.698;2023-02-16T12:43:26;6.30;99.90
14210;DHT22;7188;56.070;12.698;2023-02-16T12:45:58;6.30;99.90
14210;DHT22;7188;56.070;12.698;2023-02-16T12:48:54;6.30;99.90
14210;DHT22;7188;56.070;12.698;2023-02-16T12:51:26;6.20;99.90
14210;DHT22;7188;56.070;12.698;2023-02-16T12:54:23;6.30;99.90
14210;DHT22;7188;56.070;12.698;2023-02-16T12:57:01;6.30;99.90
14210;DHT22;7188;56.070;12.698;2023-02-16T12:59:58;6.30;99.90
14210;DHT22;7188;56.070;12.698;2023-02-16T13:05:09;6.30;99.90
14210;DHT22;7188;56.070;12.698;2023-02-16T13:07:46;6.30;99.90
14210;DHT22;7188;56.070;12.698;2023-02-16T13:13:02;6.30;99.90
14210;DHT22;7188;56.070;12.698;2023-02-16T13:18:21;6.30;99.90
14210;DHT22;7188;56.070;12.698;2023-02-16T13:20:51;6.30;99.90
14210;DHT22;7188;56.070;12.698;2023-02-16T13:23:48;6.30;99.90
14210;DHT22;7188;56.070;12.698;2023-02-16T13:26:29;6.30;99.90
14210;DHT22;7188;56.070;12.698;2023-02-16T13:41:02;6.40;99.90
14210;DHT22;7188;56.070;12.698;2023-02-16T13:43:29;6.40;1.00
14210;DHT22;7188;56.070;12.698;2023-02-16T13:45:59;6.40;1.00
14210;DHT22;7188;56.070;12.698;2023-02-16T13:48:50;6.40;1.00
14210;DHT22;7188;56.070;12.698;2023-02-16T13:51:20;6.50;1.00
14210;DHT22;7188;56.070;12.698;2023-02-16T13:54:01;6.50;1.00
14210;DHT22;7188;56.070;12.698;2023-02-16T13:56:37;6.50;1.00
14210;DHT22;7188;56.070;12.698;2023-02-16T14:01:48;6.60;1.00
14210;DHT22;7188;56.070;12.698;2023-02-16T14:06:46;6.60;1.00
14210;DHT22;7188;56.070;12.698;2023-02-16T14:14:44;6.60;1.00
14210;DHT22;7188;56.070;12.698;2023-02-16T14:27:51;6.60;99.90
14210;DHT22;7188;56.070;12.698;2023-02-16T14:35:36;6.60;99.90
14210;DHT22;7188;56.070;12.698;2023-02-16T14:38:04;6.60;99.90
14210;DHT22;7188;56.070;12.698;2023-02-16T14:43:10;6.50;99.90
14210;DHT22;7188;56.070;12.698;2023-02-16T14:46:21;6.60;99.90
14210;DHT22;7188;56.070;12.698;2023-02-16T14:58:02;6.60;99.90
14210;DHT22;7188;56.070;12.698;2023-02-16T15:00:54;6.60;99.90
14210;DHT22;7188;56.070;12.698;2023-02-16T15:03:24;6.50;99.90
14210;DHT22;7188;56.070;12.698;2023-02-16T15:06:01;6.50;99.90
14210;DHT22;7188;56.070;12.698;2023-02-16T15:08:33;6.40;99.90
14210;DHT22;7188;56.070;12.698;2023-02-16T15:11:21;6.40;99.90
14210;DHT22;7188;56.070;12.698;2023-02-16T15:13:48;6.30;99.90
14210;DHT22;7188;56.070;12.698;2023-02-16T15:16:19;6.30;99.90
14210;DHT22;7188;56.070;12.698;2023-02-16T15:18:54;6.20;99.90
14210;DHT22;7188;56.070;12.698;2023-02-16T15:21:23;6.10;99.90
14210;DHT22;7188;56.070;12.698;2023-02-16T15:23:55;6.10;99.90
14210;DHT22;7188;56.070;12.698;2023-02-16T15:26:33;6.10;99.90
14210;DHT22;7188;56.070;12.698;2023-02-16T15:29:10;6.10;99.90
14210;DHT22;7188;56.070;12.698;2023-02-16T15:31:38;6.10;99.90
14210;DHT22;7188;56.070;12.698;2023-02-16T15:34:06;6.10;99.90
14210;DHT22;7188;56.070;12.698;2023-02-16T15:36:36;6.10;99.90
14210;DHT22;7188;56.070;12.698;2023-02-16T15:39:29;6.10;99.90
14210;DHT22;7188;56.070;12.698;2023-02-16T15:44:43;6.10;99.90
14210;DHT22;7188;56.070;12.698;2023-02-16T15:47:16;6.20;99.90
14210;DHT22;7188;56.070;12.698;2023-02-16T15:49:45;6.20;99.90
14210;DHT22;7188;56.070;12.698;2023-02-16T15:52:15;6.10;99.90
14210;DHT22;7188;56.070;12.698;2023-02-16T15:54:41;6.10;99.90
14210;DHT22;7188;56.070;12.698;2023-02-16T16:00:00;6.10;99.90
14210;DHT22;7188;56.070;12.698;2023-02-16T16:02:37;6.10;99.90
14210;DHT22;7188;56.070;12.698;2023-02-16T16:05:18;6.10;99.90
14210;DHT22;7188;56.070;12.698;2023-02-16T16:07:45;6.10;99.90
14210;DHT22;7188;56.070;12.698;2023-02-16T16:12:48;6.10;99.90
14210;DHT22;7188;56.070;12.698;2023-02-16T16:15:23;6.10;99.90
14210;DHT22;7188;56.070;12.698;2023-02-16T16:17:51;6.10;99.90
14210;DHT22;7188;56.070;12.698;2023-02-16T16:23:00;6.00;99.90
14210;DHT22;7188;56.070;12.698;2023-02-16T16:41:45;6.10;99.90
14210;DHT22;7188;56.070;12.698;2023-02-16T16:44:24;6.10;99.90
14210;DHT22;7188;56.070;12.698;2023-02-16T16:46:52;6.10;99.90
14210;DHT22;7188;56.070;12.698;2023-02-16T16:49:18;6.10;99.90
14210;DHT22;7188;56.070;12.698;2023-02-16T16:51:51;6.10;99.90
14210;DHT22;7188;56.070;12.698;2023-02-16T16:54:33;6.10;99.90
14210;DHT22;7188;56.070;12.698;2023-02-16T16:57:16;6.10;99.90
14210;DHT22;7188;56.070;12.698;2023-02-16T16:59:43;6.10;99.90
14210;DHT22;7188;56.070;12.698;2023-02-16T17:02:10;6.00;99.90
14210;DHT22;7188;56.070;12.698;2023-02-16T17:04:35;6.10;99.90
14210;DHT22;7188;56.070;12.698;2023-02-16T17:07:01;6.00;99.90
14210;DHT22;7188;56.070;12.698;2023-02-16T17:09:30;6.00;99.90
14210;DHT22;7188;56.070;12.698;2023-02-16T17:11:55;6.00;99.90
14210;DHT22;7188;56.070;12.698;2023-02-16T17:17:43;6.00;99.90
14210;DHT22;7188;56.070;12.698;2023-02-16T17:20:12;6.00;99.90
14210;DHT22;7188;56.070;12.698;2023-02-16T17:22:47;6.10;99.90
14210;DHT22;7188;56.070;12.698;2023-02-16T17:25:13;6.10;99.90
14210;DHT22;7188;56.070;12.698;2023-02-16T17:27:38;6.10;99.90
14210;DHT22;7188;56.070;12.698;2023-02-16T17:30:05;6.10;99.90
14210;DHT22;7188;56.070;12.698;2023-02-16T17:32:30;6.10;99.90
14210;DHT22;7188;56.070;12.698;2023-02-16T17:34:56;6.10;99.90
14210;DHT22;7188;56.070;12.698;2023-02-16T17:37:22;6.00;99.90
14210;DHT22;7188;56.070;12.698;2023-02-16T17:39:47;6.00;99.90
14210;DHT22;7188;56.070;12.698;2023-02-16T17:42:13;6.00;99.90
14210;DHT22;7188;56.070;12.698;2023-02-16T17:44:39;6.00;99.90
14210;DHT22;7188;56.070;12.698;2023-02-16T17:47:04;6.00;99.90
14210;DHT22;7188;56.070;12.698;2023-02-16T17:49:30;6.00;99.90
14210;DHT22;7188;56.070;12.698;2023-02-16T17:51:56;6.00;99.90
14210;DHT22;7188;56.070;12.698;2023-02-16T17:54:21;6.00;99.90
14210;DHT22;7188;56.070;12.698;2023-02-16T17:56:47;6.00;99.90
14210;DHT22;7188;56.070;12.698;2023-02-16T17:59:13;6.00;99.90
14210;DHT22;7188;56.070;12.698;2023-02-16T18:01:41;6.00;99.90
14210;DHT22;7188;56.070;12.698;2023-02-16T18:04:06;6.00;99.90
14210;DHT22;7188;56.070;12.698;2023-02-16T18:06:32;6.00;99.90
14210;DHT22;7188;56.070;12.698;2023-02-16T18:08:58;6.00;99.90
14210;DHT22;7188;56.070;12.698;2023-02-16T18:11:23;6.00;99.90
14210;DHT22;7188;56.070;12.698;2023-02-16T18:13:49;6.00;99.90
14210;DHT22;7188;56.070;12.698;2023-02-16T18:16:17;6.10;99.90
14210;DHT22;7188;56.070;12.698;2023-02-16T18:18:44;6.10;99.90
14210;DHT22;7188;56.070;12.698;2023-02-16T18:21:10;6.00;99.90
14210;DHT22;7188;56.070;12.698;2023-02-16T18:23:36;6.00;99.90
14210;DHT22;7188;56.070;12.698;2023-02-16T18:26:02;6.00;99.90
14210;DHT22;7188;56.070;12.698;2023-02-16T18:28:30;6.00;99.90
14210;DHT22;7188;56.070;12.698;2023-02-16T18:31:16;5.90;99.90
14210;DHT22;7188;56.070;12.698;2023-02-16T18:33:41;5.90;99.90
14210;DHT22;7188;56.070;12.698;2023-02-16T18:36:07;6.00;99.90
14210;DHT22;7188;56.070;12.698;2023-02-16T18:38:33;5.90;99.90
14210;DHT22;7188;56.070;12.698;2023-02-16T18:40:59;5.90;99.90
14210;DHT22;7188;56.070;12.698;2023-02-16T18:43:25;6.00;99.90
14210;DHT22;7188;56.070;12.698;2023-02-16T18:45:50;5.90;99.90
14210;DHT22;7188;56.070;12.698;2023-02-16T18:48:16;6.00;99.90
14210;DHT22;7188;56.070;12.698;2023-02-16T18:50:42;6.00;99.90
14210;DHT22;7188;56.070;12.698;2023-02-16T18:53:07;6.00;99.90
14210;DHT22;7188;56.070;12.698;2023-02-16T18:55:33;6.00;99.90
14210;DHT22;7188;56.070;12.698;2023-02-16T18:57:59;6.00;99.90
14210;DHT22;7188;56.070;12.698;2023-02-16T19:00:25;5.90;99.90
14210;DHT22;7188;56.070;12.698;2023-02-16T19:02:51;5.90;99.90
14210;DHT22;7188;56.070;12.698;2023-02-16T19:05:18;5.90;99.90
14210;DHT22;7188;56.070;12.698;2023-02-16T19:07:44;6.00;99.90
14210;DHT22;7188;56.070;12.698;2023-02-16T19:10:10;6.00;99.90
14210;DHT22;7188;56.070;12.698;2023-02-16T19:12:51;6.10;99.90
14210;DHT22;7188;56.070;12.698;2023-02-16T19:15:17;6.00;99.90
14210;DHT22;7188;56.070;12.698;2023-02-16T19:17:42;6.10;99.90
14210;DHT22;7188;56.070;12.698;2023-02-16T19:20:09;6.10;99.90
14210;DHT22;7188;56.070;12.698;2023-02-16T19:22:37;6.10;99.90
14210;DHT22;7188;56.070;12.698;2023-02-16T19:25:04;6.10;99.90
14210;DHT22;7188;56.070;12.698;2023-02-16T19:27:30;6.10;99.90
14210;DHT22;7188;56.070;12.698;2023-02-16T19:29:55;6.10;99.90
14210;DHT22;7188;56.070;12.698;2023-02-16T19:32:36;6.10;99.90